Time;durP1;ratioP1;P1;durP2;ratioP2;P2;SDS_P1;SDS_P2;PMS_P1;PMS_P2;Temp;Humidity;BMP_temperature;BMP_pressure;BME280_temperature;BME280_humidity;BME280_pressure;Samples;Min_cycle;Max_cycle;Signal;HPM_P1;HPM_P2
2022/11/24 00:01:27;;;;;;;21.55;12.18;;;4.00;99.90;;;;;;4968954;28;20042;-80
2022/11/24 00:04:02;;;;;;;19.88;11.02;;;4.00;99.90;;;;;;4995342;28;20084;-81
2022/11/24 00:06:29;;;;;;;20.43;11.90;;;4.00;99.90;;;;;;4988593;28;20038;-80
2022/11/24 00:08:56;;;;;;;20.08;11.93;;;4.00;99.90;;;;;;4993126;28;20027;-80
2022/11/24 00:11:24;;;;;;;21.30;12.30;;;4.00;99.90;;;;;;4975065;28;20038;-80
2022/11/24 00:13:50;;;;;;;18.35;11.70;;;4.00;99.90;;;;;;4963448;28;20030;-80
2022/11/24 00:16:22;;;;;;;20.23;11.40;;;4.00;99.90;;;;;;4979634;28;20125;-80
2022/11/24 00:18:49;;;;;;;16.00;10.45;;;4.00;99.90;;;;;;4967083;28;20044;-80
2022/11/24 00:21:16;;;;;;;17.90;11.82;;;4.00;99.90;;;;;;4984467;28;20524;-80
2022/11/24 00:23:43;;;;;;;19.30;11.38;;;4.00;99.90;;;;;;4975224;28;20546;-80
2022/11/24 00:26:18;;;;;;;18.10;11.48;;;4.00;99.90;;;;;;4979827;28;20038;-80
2022/11/24 00:28:45;;;;;;;;;;;4.00;99.90;;;;;;4988185;28;20030;-81
2022/11/24 00:31:16;;;;;;;17.27;10.43;;;4.00;99.90;;;;;;4966880;28;19916;-81
2022/11/24 00:33:41;;;;;;;18.27;10.27;;;4.00;99.90;;;;;;4983323;28;20037;-81
2022/11/24 00:36:07;;;;;;;17.08;9.38;;;4.00;99.90;;;;;;5005256;28;20473;-80
2022/11/24 00:38:33;;;;;;;16.65;10.15;;;4.10;99.90;;;;;;5006967;28;20033;-80
2022/11/24 00:40:59;;;;;;;15.02;9.82;;;4.10;99.90;;;;;;4990869;28;20038;-80
2022/11/24 00:43:25;;;;;;;18.23;10.85;;;4.10;99.90;;;;;;4977990;28;20037;-81
2022/11/24 00:45:50;;;;;;;15.98;9.98;;;4.10;99.90;;;;;;4958069;28;20621;-80
2022/11/24 00:48:16;;;;;;;14.90;9.52;;;4.10;99.90;;;;;;4978909;28;20034;-81
2022/11/24 00:50:42;;;;;;;17.08;10.80;;;4.10;99.90;;;;;;4968920;28;20042;-80
2022/11/24 00:53:08;;;;;;;16.48;10.02;;;4.10;99.90;;;;;;4991568;28;20041;-81
2022/11/24 00:55:33;;;;;;;16.40;10.57;;;4.10;99.90;;;;;;4997422;28;20030;-81
2022/11/24 00:57:59;;;;;;;17.17;10.52;;;4.10;99.90;;;;;;4978486;28;20038;-81
2022/11/24 01:00:25;;;;;;;17.38;10.52;;;4.10;99.90;;;;;;4987113;28;20494;-81
2022/11/24 01:02:52;;;;;;;15.32;10.05;;;4.20;99.90;;;;;;5005079;28;20061;-81
2022/11/24 01:05:18;;;;;;;16.17;10.32;;;4.10;99.90;;;;;;4990960;28;20045;-81
2022/11/24 01:07:43;;;;;;;15.90;10.52;;;4.20;99.90;;;;;;4962475;28;20464;-81
2022/11/24 01:10:09;;;;;;;17.08;9.57;;;4.20;99.90;;;;;;4994390;28;20045;-81
2022/11/24 01:12:35;;;;;;;17.80;9.23;;;4.20;99.90;;;;;;5000987;28;20415;-81
2022/11/24 01:15:01;;;;;;;16.42;9.90;;;4.10;99.90;;;;;;4984284;28;20490;-81
2022/11/24 01:17:26;;;;;;;16.67;10.32;;;4.20;99.90;;;;;;4994664;28;20038;-80
2022/11/24 01:19:52;;;;;;;15.40;9.05;;;4.20;99.90;;;;;;4972209;28;20069;-81
2022/11/24 01:22:18;;;;;;;16.00;9.85;;;4.30;99.90;;;;;;4982011;28;20092;-80
2022/11/24 01:24:44;;;;;;;13.98;10.02;;;4.30;99.90;;;;;;4974507;28;20035;-80
2022/11/24 01:27:10;;;;;;;12.93;8.35;;;4.30;99.90;;;;;;4984744;28;20035;-81
2022/11/24 01:29:36;;;;;;;19.38;9.10;;;4.30;99.90;;;;;;4985806;28;20041;-80
2022/11/24 01:32:01;;;;;;;12.82;7.65;;;4.20;99.90;;;;;;4992457;28;20100;-80
2022/11/24 01:34:27;;;;;;;15.80;8.48;;;4.30;99.90;;;;;;4967889;28;20030;-80
2022/11/24 01:36:53;;;;;;;12.38;7.75;;;4.30;99.90;;;;;;4968490;28;20114;-81
2022/11/24 01:39:19;;;;;;;10.95;7.65;;;4.30;99.90;;;;;;4977373;28;20404;-81
2022/11/24 01:41:44;;;;;;;11.38;7.35;;;4.30;99.90;;;;;;4966800;28;20034;-80
2022/11/24 01:44:22;;;;;;;11.60;7.70;;;4.40;99.90;;;;;;4963023;28;20042;-80
2022/11/24 01:46:53;;;;;;;207.45;14.10;;;4.40;99.90;;;;;;4973139;28;20129;-81
2022/11/24 01:49:28;;;;;;;10.82;7.18;;;4.30;99.90;;;;;;4974686;28;20038;-80
2022/11/24 01:52:03;;;;;;;18.02;6.18;;;4.30;99.90;;;;;;4977757;28;20407;-80
2022/11/24 01:54:32;;;;;;;9.95;6.63;;;4.30;99.90;;;;;;4992771;28;20475;-81
2022/11/24 01:57:05;;;;;;;7.85;5.57;;;4.30;99.90;;;;;;4978297;28;20450;-80
2022/11/24 01:59:31;;;;;;;8.68;5.60;;;4.30;99.90;;;;;;4965424;28;20023;-81
2022/11/24 02:01:57;;;;;;;6.18;5.10;;;4.40;99.90;;;;;;4975693;28;20599;-80
2022/11/24 02:04:27;;;;;;;12.75;5.18;;;4.30;99.90;;;;;;4982510;28;20030;-80
2022/11/24 02:06:55;;;;;;;44.30;6.28;;;4.30;99.90;;;;;;4986852;28;20034;-80
2022/11/24 02:09:24;;;;;;;6.68;4.70;;;4.40;99.90;;;;;;5004164;28;20536;-81
2022/11/24 02:11:52;;;;;;;8.02;4.97;;;4.40;99.90;;;;;;4983611;28;20126;-81
2022/11/24 02:14:20;;;;;;;16.38;4.72;;;4.40;99.90;;;;;;4977352;28;20037;-80
2022/11/24 02:16:50;;;;;;;9.57;4.70;;;4.40;99.90;;;;;;4980762;28;20487;-81
2022/11/24 02:19:34;;;;;;;6.07;4.15;;;4.40;99.90;;;;;;4971565;28;20030;-81
2022/11/24 02:22:01;;;;;;;5.35;4.18;;;4.40;99.90;;;;;;4986056;28;20498;-81
2022/11/24 02:24:48;;;;;;;5.68;4.50;;;4.40;99.90;;;;;;4976638;28;20089;-81
2022/11/24 02:27:14;;;;;;;27.63;5.30;;;4.40;99.90;;;;;;4972520;28;20042;-81
2022/11/24 02:29:41;;;;;;;15.50;4.93;;;4.40;99.90;;;;;;4996125;28;20441;-81
2022/11/24 02:32:08;;;;;;;19.30;5.32;;;4.50;99.90;;;;;;4979298;28;20053;-81
2022/11/24 02:34:34;;;;;;;6.40;4.57;;;4.50;99.90;;;;;;4988579;28;20058;-80
2022/11/24 02:37:00;;;;;;;9.80;4.57;;;4.50;99.90;;;;;;4999539;28;20076;-81
2022/11/24 02:39:26;;;;;;;12.77;4.70;;;4.50;99.90;;;;;;4977616;28;20106;-81
2022/11/24 02:41:57;;;;;;;9.75;5.05;;;4.60;99.90;;;;;;4984678;28;20056;-81
2022/11/24 02:44:28;;;;;;;7.75;4.75;;;4.60;99.90;;;;;;4979426;28;20038;-81
2022/11/24 02:47:02;;;;;;;4.85;4.00;;;4.60;99.90;;;;;;4986689;28;20048;-81
2022/11/24 02:49:28;;;;;;;6.35;4.65;;;4.60;99.90;;;;;;4986603;28;20125;-80
2022/11/24 02:51:55;;;;;;;6.00;4.78;;;4.50;99.90;;;;;;4993321;28;20121;-81
2022/11/24 02:54:21;;;;;;;7.82;5.13;;;4.60;99.90;;;;;;4982940;28;20034;-80
2022/11/24 02:56:47;;;;;;;6.40;4.75;;;4.60;99.90;;;;;;4984707;28;20037;-80
2022/11/24 02:59:13;;;;;;;6.28;4.68;;;4.60;99.90;;;;;;4990867;28;20030;-80
2022/11/24 03:01:38;;;;;;;4.85;4.13;;;4.60;99.90;;;;;;4988455;28;20541;-80
2022/11/24 03:04:04;;;;;;;7.80;5.25;;;4.60;99.90;;;;;;5008219;28;20226;-80
2022/11/24 03:06:30;;;;;;;10.88;4.93;;;4.70;99.90;;;;;;4982878;28;20049;-80
2022/11/24 03:08:56;;;;;;;6.93;5.55;;;4.70;99.90;;;;;;4982249;28;20442;-80
2022/11/24 03:11:21;;;;;;;8.30;5.95;;;4.70;99.90;;;;;;4988465;28;20129;-81
2022/11/24 03:13:48;;;;;;;7.55;5.03;;;4.80;99.90;;;;;;5004995;28;20031;-80
2022/11/24 03:16:14;;;;;;;7.03;4.40;;;4.90;99.90;;;;;;4992447;28;20109;-78
2022/11/24 03:18:40;;;;;;;6.65;4.38;;;4.80;99.90;;;;;;4986690;28;20070;-79
2022/11/24 03:21:06;;;;;;;8.38;4.72;;;4.80;99.90;;;;;;4964182;28;20047;-80
2022/11/24 03:23:32;;;;;;;7.18;5.05;;;4.90;99.90;;;;;;4972446;28;20119;-80
2022/11/24 03:26:16;;;;;;;8.43;5.30;;;4.90;99.90;;;;;;4959990;28;20129;-80
2022/11/24 03:28:42;;;;;;;7.50;4.55;;;4.90;99.90;;;;;;4991634;28;20045;-80
2022/11/24 03:31:09;;;;;;;9.32;5.05;;;4.80;99.90;;;;;;5004517;28;20037;-79
2022/11/24 03:33:35;;;;;;;8.15;4.90;;;4.90;99.90;;;;;;4992123;28;20121;-79
2022/11/24 03:36:02;;;;;;;6.88;5.00;;;4.90;99.90;;;;;;4978269;28;20772;-80
2022/11/24 03:38:28;;;;;;;23.83;4.82;;;4.80;99.90;;;;;;4984440;28;20557;-80
2022/11/24 03:40:54;;;;;;;42.28;5.28;;;4.90;99.90;;;;;;4983878;28;20113;-80
2022/11/24 03:43:19;;;;;;;6.20;4.38;;;4.90;99.90;;;;;;4988256;28;20538;-79
2022/11/24 03:45:46;;;;;;;4.90;3.90;;;4.90;99.90;;;;;;4995555;28;20401;-80
2022/11/24 03:48:13;;;;;;;13.50;4.22;;;4.80;99.90;;;;;;4990856;28;20040;-79
2022/11/24 03:50:39;;;;;;;17.95;4.13;;;4.90;99.90;;;;;;4987665;28;20122;-80
2022/11/24 03:53:05;;;;;;;66.13;5.88;;;4.90;99.90;;;;;;4969705;28;20151;-80
2022/11/24 03:55:31;;;;;;;21.58;4.15;;;4.90;99.90;;;;;;4988641;28;20038;-80
2022/11/24 03:57:57;;;;;;;51.95;4.70;;;4.90;99.90;;;;;;4988007;28;20030;-81
2022/11/24 04:00:22;;;;;;;32.45;4.43;;;4.90;99.90;;;;;;4995008;28;20041;-80
2022/11/24 04:02:48;;;;;;;33.80;4.28;;;5.00;99.90;;;;;;4984719;28;20031;-81
2022/11/24 04:05:14;;;;;;;42.70;5.18;;;5.00;99.90;;;;;;4968859;28;20218;-79
2022/11/24 04:07:40;;;;;;;33.85;4.43;;;5.00;99.90;;;;;;4988509;28;20041;-80
2022/11/24 04:10:06;;;;;;;25.70;4.15;;;5.00;99.90;;;;;;4994713;28;20494;-80
2022/11/24 04:12:44;;;;;;;115.45;7.40;;;5.00;99.90;;;;;;4987102;28;20078;-79
2022/11/24 04:15:13;;;;;;;68.03;5.55;;;5.10;99.90;;;;;;4990542;28;20080;-80
2022/11/24 04:17:39;;;;;;;202.25;10.27;;;5.10;99.90;;;;;;4971683;28;20537;-80
2022/11/24 04:20:05;;;;;;;21.25;3.65;;;5.10;99.90;;;;;;4965030;28;20038;-80
2022/11/24 04:22:31;;;;;;;28.83;3.92;;;5.10;99.90;;;;;;5002595;28;20418;-79
2022/11/24 04:24:57;;;;;;;16.45;3.88;;;5.10;99.90;;;;;;5000697;28;20061;-79
2022/11/24 04:27:23;;;;;;;31.25;3.53;;;5.20;99.90;;;;;;4994191;28;20080;-78
2022/11/24 04:29:49;;;;;;;3.88;2.47;;;5.10;99.90;;;;;;5004481;28;20030;-78
2022/11/24 04:32:16;;;;;;;27.83;3.63;;;5.20;99.90;;;;;;5002027;28;20045;-78
2022/11/24 04:34:42;;;;;;;42.42;3.85;;;5.20;99.90;;;;;;5006866;28;20610;-79
2022/11/24 04:37:08;;;;;;;27.48;3.58;;;5.20;99.90;;;;;;4986794;28;20168;-80
2022/11/24 04:39:34;;;;;;;10.32;3.15;;;5.20;99.90;;;;;;4972505;28;20034;-80
2022/11/24 04:41:59;;;;;;;43.03;4.13;;;5.30;99.90;;;;;;5001313;28;20045;-80
2022/11/24 04:44:25;;;;;;;72.88;7.22;;;5.30;99.90;;;;;;4973049;28;20031;-80
2022/11/24 04:46:51;;;;;;;54.80;5.93;;;5.30;99.90;;;;;;4983070;28;20045;-80
2022/11/24 04:49:18;;;;;;;17.30;2.80;;;5.30;99.90;;;;;;4978046;28;20049;-80
2022/11/24 04:51:44;;;;;;;108.30;6.75;;;5.30;99.90;;;;;;4964862;28;20034;-80
2022/11/24 04:54:11;;;;;;;43.83;4.75;;;5.40;99.90;;;;;;5003255;28;20036;-80
2022/11/24 04:56:38;;;;;;;16.38;3.33;;;5.40;99.90;;;;;;4991307;28;20560;-80
2022/11/24 04:59:04;;;;;;;8.98;2.70;;;5.40;99.90;;;;;;4989496;28;20449;-80
2022/11/24 05:01:30;;;;;;;3.63;2.83;;;5.50;99.90;;;;;;4996145;28;20515;-79
2022/11/24 05:03:57;;;;;;;5.50;3.10;;;5.50;99.90;;;;;;4993919;28;20087;-80
2022/11/24 05:06:23;;;;;;;6.70;3.40;;;5.50;99.90;;;;;;4990734;28;20561;-80
2022/11/24 05:08:52;;;;;;;8.25;3.63;;;5.50;99.90;;;;;;4997875;28;20038;-80
2022/11/24 05:11:18;;;;;;;4.30;2.92;;;5.50;99.90;;;;;;4990317;28;20454;-79
2022/11/24 05:13:44;;;;;;;20.80;3.60;;;5.50;99.90;;;;;;4996827;28;20031;-80
2022/11/24 05:16:10;;;;;;;7.88;3.17;;;5.50;99.90;;;;;;4990279;28;20077;-79
2022/11/24 05:18:36;;;;;;;13.40;3.20;;;5.50;99.90;;;;;;4974705;28;20027;-80
2022/11/24 05:21:03;;;;;;;30.02;3.60;;;5.50;99.90;;;;;;4957304;28;20062;-79
2022/11/24 05:23:29;;;;;;;20.77;3.05;;;5.50;99.90;;;;;;4990531;28;20027;-79
2022/11/24 05:26:01;;;;;;;137.65;6.90;;;5.60;99.90;;;;;;4990438;28;20045;-79
2022/11/24 05:28:28;;;;;;;5.47;2.80;;;5.60;99.90;;;;;;4973777;28;20034;-80
2022/11/24 05:30:57;;;;;;;174.60;13.98;;;5.60;99.90;;;;;;4999626;28;20624;-79
2022/11/24 05:33:23;;;;;;;132.55;7.97;;;5.70;99.90;;;;;;4990641;28;20043;-79
2022/11/24 05:35:49;;;;;;;15.60;2.95;;;5.70;99.90;;;;;;4978157;28;20034;-80
2022/11/24 05:38:16;;;;;;;34.55;4.63;;;5.70;99.90;;;;;;4990951;28;20133;-79
2022/11/24 05:40:42;;;;;;;111.50;6.65;;;5.80;99.90;;;;;;5005928;28;20062;-79
2022/11/24 05:43:12;;;;;;;101.53;6.20;;;5.70;99.90;;;;;;4974158;28;20772;-79
2022/11/24 05:45:38;;;;;;;22.27;4.35;;;5.70;99.90;;;;;;4990126;28;20034;-79
2022/11/24 05:48:06;;;;;;;35.03;4.38;;;5.70;99.90;;;;;;4999885;28;20033;-79
2022/11/24 05:50:33;;;;;;;13.50;3.65;;;5.70;99.90;;;;;;5005570;28;20026;-80
2022/11/24 05:53:03;;;;;;;16.50;4.28;;;5.70;99.90;;;;;;4990117;28;20121;-80
2022/11/24 05:55:29;;;;;;;11.75;3.58;;;5.70;99.90;;;;;;5005515;28;20031;-79
2022/11/24 05:58:00;;;;;;;9.48;4.10;;;5.70;99.90;;;;;;4973869;28;20034;-79
2022/11/24 06:00:27;;;;;;;11.13;4.25;;;5.70;99.90;;;;;;4989722;28;20668;-79
2022/11/24 06:02:53;;;;;;;11.27;4.18;;;5.70;99.90;;;;;;4990035;28;20434;-80
2022/11/24 06:05:19;;;;;;;18.40;4.22;;;5.80;99.90;;;;;;4975743;28;20038;-78
2022/11/24 06:07:45;;;;;;;41.97;6.60;;;5.80;99.90;;;;;;4993113;28;20030;-80
2022/11/24 06:10:10;;;;;;;174.52;9.38;;;5.80;99.90;;;;;;4965968;28;20768;-80
2022/11/24 06:12:36;;;;;;;37.65;4.28;;;5.80;99.90;;;;;;4989511;28;20042;-79
2022/11/24 06:15:02;;;;;;;6.95;3.63;;;5.80;99.90;;;;;;4954106;28;20042;-79
2022/11/24 06:17:28;;;;;;;56.00;5.72;;;5.80;99.90;;;;;;4991168;28;20054;-80
2022/11/24 06:19:54;;;;;;;59.22;6.13;;;5.90;99.90;;;;;;4964333;28;20504;-79
2022/11/24 06:22:19;;;;;;;48.28;5.00;;;5.90;99.90;;;;;;4996969;28;20124;-79
2022/11/24 06:24:45;;;;;;;17.38;4.35;;;5.90;99.90;;;;;;4997596;28;20049;-79
2022/11/24 06:27:12;;;;;;;86.25;7.68;;;5.90;99.90;;;;;;4989367;28;20533;-79
2022/11/24 06:29:38;;;;;;;38.33;3.92;;;6.00;99.90;;;;;;4991986;28;20544;-79
2022/11/24 06:32:04;;;;;;;24.98;4.05;;;6.00;99.90;;;;;;5002871;28;20113;-79
2022/11/24 06:34:30;;;;;;;7.50;2.95;;;6.00;99.90;;;;;;4987465;28;20034;-79
2022/11/24 06:36:56;;;;;;;28.58;5.25;;;6.00;99.90;;;;;;5005211;28;20041;-79
2022/11/24 06:39:22;;;;;;;15.75;4.10;;;6.00;99.90;;;;;;4976667;28;20033;-79
2022/11/24 06:41:51;;;;;;;7.90;3.00;;;6.00;99.90;;;;;;5002030;28;20547;-79
2022/11/24 06:44:17;;;;;;;8.90;3.95;;;6.00;99.90;;;;;;4994690;28;20045;-80
2022/11/24 06:46:44;;;;;;;143.93;10.07;;;6.00;99.90;;;;;;4983171;28;20038;-79
2022/11/24 06:49:10;;;;;;;78.55;5.82;;;6.10;99.90;;;;;;4988002;28;20030;-79
2022/11/24 06:51:36;;;;;;;23.30;3.50;;;6.00;99.90;;;;;;4983453;28;20502;-78
2022/11/24 06:54:05;;;;;;;77.93;6.30;;;6.00;99.90;;;;;;4978265;28;20073;-79
2022/11/24 06:56:31;;;;;;;49.42;5.57;;;6.00;99.90;;;;;;4988282;28;20019;-79
2022/11/24 06:58:57;;;;;;;35.85;4.53;;;6.10;99.90;;;;;;4989036;28;20630;-79
2022/11/24 07:01:25;;;;;;;96.38;6.53;;;6.10;99.90;;;;;;4993577;28;20142;-79
2022/11/24 07:03:52;;;;;;;7.97;3.15;;;6.10;99.90;;;;;;4971225;28;20578;-79
2022/11/24 07:06:18;;;;;;;214.50;12.85;;;6.10;99.90;;;;;;4975516;28;20105;-78
2022/11/24 07:08:45;;;;;;;61.85;6.45;;;6.10;99.90;;;;;;4976984;28;20037;-79
2022/11/24 07:11:16;;;;;;;70.47;5.88;;;6.10;99.90;;;;;;4983324;28;20491;-79
2022/11/24 07:13:42;;;;;;;6.50;3.65;;;6.20;99.90;;;;;;4982920;28;20030;-78
2022/11/24 07:16:12;;;;;;;28.63;5.53;;;6.10;99.90;;;;;;4987785;28;20023;-79
2022/11/24 07:18:38;;;;;;;116.68;9.68;;;6.20;99.90;;;;;;4980533;28;20109;-79
2022/11/24 07:21:04;;;;;;;30.17;5.35;;;6.20;99.90;;;;;;4994743;28;20130;-78
2022/11/24 07:23:30;;;;;;;26.45;4.93;;;6.20;99.90;;;;;;4991939;28;20050;-78
2022/11/24 07:25:56;;;;;;;28.35;5.38;;;6.20;99.90;;;;;;4990533;28;20631;-78
2022/11/24 07:28:21;;;;;;;15.77;4.28;;;6.20;99.90;;;;;;4989800;28;20218;-79
2022/11/24 07:30:47;;;;;;;29.27;4.82;;;6.20;99.90;;;;;;4990214;28;20076;-78
2022/11/24 07:33:14;;;;;;;6.45;3.85;;;6.20;99.90;;;;;;4991507;28;20026;-78
2022/11/24 07:35:40;;;;;;;12.43;4.43;;;6.20;99.90;;;;;;5004705;28;20030;-78
2022/11/24 07:38:06;;;;;;;130.50;10.13;;;6.20;99.90;;;;;;4991769;28;20033;-79
2022/11/24 07:40:32;;;;;;;5.45;3.80;;;6.30;99.90;;;;;;4988134;28;20681;-79
2022/11/24 07:43:00;;;;;;;16.25;4.72;;;6.30;99.90;;;;;;4981480;28;20030;-78
2022/11/24 07:45:26;;;;;;;12.65;4.55;;;6.30;99.90;;;;;;4981984;28;20434;-79
2022/11/24 07:47:51;;;;;;;13.30;4.53;;;6.30;99.90;;;;;;4995187;28;20031;-78
2022/11/24 07:50:17;;;;;;;15.00;4.55;;;6.40;99.90;;;;;;4985232;28;20495;-78
2022/11/24 07:52:43;;;;;;;22.73;5.15;;;6.40;99.90;;;;;;5006146;28;20475;-79
2022/11/24 07:55:09;;;;;;;15.82;4.32;;;6.50;99.90;;;;;;5007847;28;20030;-79
2022/11/24 07:57:35;;;;;;;25.70;5.15;;;6.50;99.90;;;;;;4999058;28;20019;-78
2022/11/24 08:00:03;;;;;;;12.57;4.60;;;6.50;99.90;;;;;;4968330;28;20041;-79
2022/11/24 08:02:30;;;;;;;15.68;4.40;;;6.50;99.90;;;;;;4989387;28;20060;-79
2022/11/24 08:04:56;;;;;;;14.57;3.50;;;6.60;99.90;;;;;;4983014;28;20487;-79
2022/11/24 08:07:21;;;;;;;11.13;4.22;;;6.60;99.90;;;;;;4972224;28;20041;-79
2022/11/24 08:09:49;;;;;;;17.02;4.30;;;6.60;99.90;;;;;;4988534;28;20499;-79
2022/11/24 08:12:16;;;;;;;12.15;3.60;;;6.50;99.90;;;;;;4971842;28;20081;-79
2022/11/24 08:14:42;;;;;;;13.68;3.40;;;6.50;99.90;;;;;;4991324;28;20034;-79
2022/11/24 08:17:08;;;;;;;8.52;3.50;;;6.50;99.90;;;;;;4978915;28;20080;-79
2022/11/24 08:19:33;;;;;;;9.13;3.05;;;6.50;99.90;;;;;;4982259;28;20679;-79
2022/11/24 08:21:59;;;;;;;29.95;3.70;;;6.40;99.90;;;;;;4995631;28;20042;-79
2022/11/24 08:24:26;;;;;;;139.07;8.70;;;6.40;99.90;;;;;;5004164;28;20041;-78
2022/11/24 08:26:52;;;;;;;4.20;2.25;;;6.50;99.90;;;;;;4998320;28;20038;-79
2022/11/24 08:29:18;;;;;;;6.72;2.80;;;6.50;99.90;;;;;;4974156;28;20041;-79
2022/11/24 08:31:43;;;;;;;12.50;3.22;;;6.50;99.90;;;;;;5007605;28;20046;-79
2022/11/24 08:34:09;;;;;;;7.40;2.70;;;6.70;99.90;;;;;;4988717;28;20030;-79
2022/11/24 08:36:36;;;;;;;11.70;2.83;;;6.70;99.90;;;;;;5003063;28;20454;-79
2022/11/24 08:39:02;;;;;;;9.13;2.72;;;6.80;99.90;;;;;;4992416;28;20038;-79
2022/11/24 08:41:29;;;;;;;9.18;2.03;;;6.80;99.90;;;;;;4991112;28;20031;-79
2022/11/24 08:43:55;;;;;;;7.65;2.70;;;6.90;99.90;;;;;;4989125;28;20049;-78
2022/11/24 08:46:22;;;;;;;14.57;2.42;;;6.80;99.90;;;;;;4991542;28;20030;-78
2022/11/24 08:48:53;;;;;;;10.95;3.20;;;6.90;99.90;;;;;;4990331;28;20036;-78
2022/11/24 08:51:22;;;;;;;5.72;2.20;;;7.00;99.90;;;;;;4998668;28;20041;-80
2022/11/24 08:53:47;;;;;;;6.90;2.30;;;7.00;99.90;;;;;;4999335;28;20058;-78
2022/11/24 08:56:13;;;;;;;12.30;2.30;;;7.00;99.90;;;;;;4987116;28;20065;-80
2022/11/24 08:58:40;;;;;;;12.30;2.38;;;7.00;99.90;;;;;;4996257;28;20038;-82
2022/11/24 09:01:11;;;;;;;6.82;2.70;;;7.00;99.90;;;;;;4987355;28;20042;-78
2022/11/24 09:03:38;;;;;;;10.48;2.75;;;7.00;99.90;;;;;;4993493;28;20026;-77
2022/11/24 09:06:05;;;;;;;8.02;2.72;;;7.00;99.90;;;;;;4961395;28;20034;-77
2022/11/24 09:08:32;;;;;;;9.50;2.22;;;7.00;99.90;;;;;;4988574;28;20038;-78
2022/11/24 09:11:09;;;;;;;8.30;3.13;;;7.00;99.90;;;;;;4997302;28;20073;-79
2022/11/24 09:13:36;;;;;;;10.95;2.72;;;7.10;99.90;;;;;;4994423;28;20053;-78
2022/11/24 09:16:10;;;;;;;14.50;2.75;;;7.20;99.90;;;;;;4989931;28;20045;-78
2022/11/24 09:18:36;;;;;;;9.77;2.20;;;7.20;99.90;;;;;;4996832;28;20062;-82
2022/11/24 09:21:21;;;;;;;7.00;2.20;;;7.20;99.90;;;;;;4983088;28;20715;-78
2022/11/24 09:23:50;;;;;;;10.30;2.37;;;7.20;99.90;;;;;;4992619;28;20057;-81
2022/11/24 09:26:18;;;;;;;9.68;2.92;;;7.20;99.90;;;;;;4999671;28;20105;-77
2022/11/24 09:28:44;;;;;;;13.07;4.18;;;7.20;99.90;;;;;;5003179;28;20066;-78
2022/11/24 09:31:13;;;;;;;8.63;3.20;;;7.20;99.90;;;;;;4978621;28;20095;-80
2022/11/24 09:33:39;;;;;;;7.68;3.20;;;7.20;99.90;;;;;;4990675;28;20041;-78
2022/11/24 09:36:06;;;;;;;7.60;3.25;;;7.20;99.90;;;;;;4986302;28;20100;-78
2022/11/24 09:38:32;;;;;;;8.40;3.83;;;7.20;99.90;;;;;;5004636;28;20042;-82
2022/11/24 09:41:16;;;;;;;5.70;3.25;;;7.20;99.90;;;;;;4999302;28;20023;-78
2022/11/24 09:44:08;;;;;;;11.45;3.75;;;7.20;99.90;;;;;;5003371;28;20045;-77
2022/11/24 09:47:36;;;;;;;8.90;3.10;;;7.10;99.90;;;;;;4979555;28;20414;-79
2022/11/24 09:50:14;;;;;;;11.77;3.70;;;7.20;99.90;;;;;;4946935;29;20122;-78
2022/11/24 09:52:46;;;;;;;11.57;3.83;;;7.20;99.90;;;;;;4949277;28;20039;-78
2022/11/24 09:55:31;;;;;;;10.73;4.00;;;7.20;99.90;;;;;;4951554;28;20114;-78
2022/11/24 09:58:05;;;;;;;;;;;7.20;99.90;;;;;;4996333;28;20418;-77
2022/11/24 10:00:32;;;;;;;12.98;4.03;;;7.20;99.90;;;;;;4987980;28;19918;-79
2022/11/24 10:02:58;;;;;;;12.38;3.50;;;7.20;99.90;;;;;;4986296;28;20072;-76
2022/11/24 10:05:28;;;;;;;11.32;3.78;;;7.20;99.90;;;;;;4987523;28;20114;-79
2022/11/24 10:08:15;;;;;;;14.07;3.80;;;7.30;99.90;;;;;;4988206;28;20517;-79
2022/11/24 10:10:56;;;;;;;16.92;4.50;;;7.30;99.90;;;;;;5001287;28;20081;-78
2022/11/24 10:13:37;;;;;;;11.68;3.45;;;7.40;99.90;;;;;;4985872;28;20030;-79
2022/11/24 10:16:28;;;;;;;10.65;3.30;;;7.40;99.90;;;;;;4991161;28;20035;-78
2022/11/24 10:19:18;;;;;;;10.05;3.50;;;7.60;99.90;;;;;;4919064;28;20050;-78
2022/11/24 10:22:06;;;;;;;10.65;3.20;;;7.70;99.90;;;;;;4991930;28;20037;-78
2022/11/24 10:25:06;;;;;;;14.52;3.60;;;7.80;99.90;;;;;;5006904;28;20033;-79
2022/11/24 10:27:47;;;;;;;9.13;3.55;;;7.80;99.90;;;;;;4981929;28;20030;-77
2022/11/24 10:30:17;;;;;;;11.43;2.80;;;7.80;99.90;;;;;;4986857;28;20034;-77
2022/11/24 10:32:46;;;;;;;8.98;2.90;;;7.80;99.90;;;;;;5007498;28;20116;-78
2022/11/24 10:35:29;;;;;;;11.52;3.50;;;7.80;99.90;;;;;;4968588;28;20038;-79
2022/11/24 10:38:25;;;;;;;7.65;2.90;;;7.80;99.90;;;;;;4982330;28;20454;-78
2022/11/24 10:40:58;;;;;;;12.82;3.38;;;7.80;99.90;;;;;;4979464;28;20022;-79
2022/11/24 10:43:26;;;;;;;8.52;2.67;;;7.80;99.90;;;;;;4995588;28;20092;-77
2022/11/24 10:45:58;;;;;;;4.45;2.40;;;7.80;99.90;;;;;;4976283;28;20042;-79
2022/11/24 10:48:27;;;;;;;10.40;2.33;;;7.80;99.90;;;;;;4990861;28;20061;-77
2022/11/24 10:50:56;;;;;;;4.95;1.73;;;7.80;99.90;;;;;;4985144;28;20038;-77
2022/11/24 10:53:34;;;;;;;8.35;2.13;;;7.80;99.90;;;;;;4999462;28;20030;-78
2022/11/24 10:56:03;;;;;;;4.47;2.33;;;7.90;99.90;;;;;;4986490;28;20037;-78
2022/11/24 10:58:34;;;;;;;6.57;2.20;;;7.90;99.90;;;;;;4991415;28;20186;-78
2022/11/24 11:01:11;;;;;;;4.38;1.80;;;7.80;99.90;;;;;;4987023;28;20494;-78
2022/11/24 11:03:48;;;;;;;7.25;2.10;;;7.90;99.90;;;;;;4986513;28;20035;-78
2022/11/24 11:06:21;;;;;;;5.10;2.00;;;7.80;99.90;;;;;;4988391;28;20527;-78
2022/11/24 11:08:46;;;;;;;5.43;1.83;;;7.80;99.90;;;;;;4984655;28;20475;-77
2022/11/24 11:11:26;;;;;;;3.22;1.30;;;7.80;99.90;;;;;;4970652;28;20038;-80
2022/11/24 11:14:03;;;;;;;3.85;1.30;;;7.80;99.90;;;;;;5002398;28;20108;-79
2022/11/24 11:16:29;;;;;;;3.17;1.33;;;7.80;99.90;;;;;;4989045;28;20034;-79
2022/11/24 11:18:55;;;;;;;3.50;0.98;;;7.80;99.90;;;;;;4981800;28;20026;-79
2022/11/24 11:21:32;;;;;;;3.38;1.05;;;7.70;99.90;;;;;;4983884;28;20125;-79
2022/11/24 11:24:01;;;;;;;1.98;0.80;;;7.70;99.90;;;;;;4969041;28;20443;-79
2022/11/24 11:26:36;;;;;;;2.78;0.95;;;7.80;99.90;;;;;;4986130;28;20025;-79
2022/11/24 11:29:24;;;;;;;3.85;0.90;;;7.70;99.90;;;;;;4979143;28;20030;-80
2022/11/24 11:32:17;;;;;;;3.60;1.00;;;7.70;99.90;;;;;;4990893;28;20041;-79
2022/11/24 11:34:43;;;;;;;5.13;1.33;;;7.80;99.90;;;;;;4962642;28;20038;-79
2022/11/24 11:37:13;;;;;;;4.32;0.90;;;7.80;99.90;;;;;;4966614;28;20039;-80
2022/11/24 11:39:50;;;;;;;3.58;1.00;;;7.80;99.90;;;;;;4981975;28;20030;-79
2022/11/24 11:42:34;;;;;;;5.80;0.90;;;7.80;99.90;;;;;;4992957;28;20038;-79
2022/11/24 11:45:13;;;;;;;2.70;0.85;;;7.80;99.90;;;;;;4983439;28;20041;-79
2022/11/24 11:47:54;;;;;;;3.08;0.75;;;7.70;99.90;;;;;;4993488;28;20150;-79
2022/11/24 11:50:29;;;;;;;4.40;0.90;;;7.70;99.90;;;;;;4970726;28;20041;-79
2022/11/24 11:53:29;;;;;;;1.60;0.70;;;7.70;99.90;;;;;;4984577;28;20042;-79
2022/11/24 11:56:07;;;;;;;3.13;0.70;;;7.80;99.90;;;;;;4969135;28;20117;-78
2022/11/24 11:58:50;;;;;;;2.75;1.10;;;7.80;99.90;;;;;;4989023;28;20025;-78
2022/11/24 12:01:45;;;;;;;3.10;1.00;;;7.80;99.90;;;;;;4991380;28;20103;-79
2022/11/24 12:04:33;;;;;;;3.78;0.90;;;7.90;99.90;;;;;;4999114;28;20041;-78
2022/11/24 12:07:33;;;;;;;2.40;0.60;;;7.90;99.90;;;;;;4961769;28;20042;-79
2022/11/24 12:10:27;;;;;;;2.10;0.73;;;7.90;99.90;;;;;;4985751;28;20034;-79
2022/11/24 12:13:24;;;;;;;1.45;0.70;;;7.80;99.90;;;;;;4983555;28;20467;-79
2022/11/24 12:15:52;;;;;;;1.80;0.60;;;7.80;99.90;;;;;;4991863;28;20026;-79
2022/11/24 12:18:45;;;;;;;4.40;1.00;;;7.80;99.90;;;;;;4991730;28;20027;-78
2022/11/24 12:21:18;;;;;;;2.10;0.55;;;7.70;99.90;;;;;;4987684;28;20607;-79
2022/11/24 12:24:09;;;;;;;3.28;0.88;;;7.70;99.90;;;;;;4987827;28;20030;-79
2022/11/24 12:26:46;;;;;;;3.97;1.00;;;7.70;99.90;;;;;;4991946;28;20117;-79
2022/11/24 12:29:14;;;;;;;6.00;1.20;;;7.60;99.90;;;;;;4985740;28;20030;-79
2022/11/24 12:32:14;;;;;;;1.98;0.98;;;7.60;99.90;;;;;;4989163;28;20031;-79
2022/11/24 12:34:47;;;;;;;2.30;0.90;;;7.70;99.90;;;;;;5007577;28;20033;-79
2022/11/24 12:37:27;;;;;;;2.22;0.80;;;7.60;99.90;;;;;;5000609;28;20034;-79
2022/11/24 12:40:15;;;;;;;2.70;0.90;;;7.60;99.90;;;;;;4976214;28;20104;-79
2022/11/24 12:43:17;;;;;;;4.28;1.33;;;7.50;99.90;;;;;;4986229;28;20096;-79
2022/11/24 12:45:52;;;;;;;2.65;1.00;;;7.50;99.90;;;;;;4989044;28;20034;-79
2022/11/24 12:48:42;;;;;;;2.03;0.85;;;7.50;99.90;;;;;;4989520;28;20037;-79
2022/11/24 12:51:19;;;;;;;1.10;0.70;;;7.50;99.90;;;;;;4990097;28;20061;-79
2022/11/24 12:53:51;;;;;;;4.80;0.80;;;7.40;99.90;;;;;;4989991;28;20096;-79
2022/11/24 12:56:27;;;;;;;1.48;0.82;;;7.40;99.90;;;;;;4986960;28;20058;-79
2022/11/24 12:59:23;;;;;;;3.33;1.38;;;7.40;99.90;;;;;;4983381;28;20034;-80
2022/11/24 13:02:19;;;;;;;2.03;1.10;;;7.30;99.90;;;;;;4988555;28;20101;-79
2022/11/24 13:04:57;;;;;;;5.10;0.83;;;7.30;99.90;;;;;;4989969;28;20030;-79
2022/11/24 13:07:42;;;;;;;4.20;1.10;;;7.30;99.90;;;;;;5000331;28;20030;-78